Latest Weather Observations for Point Stuart

IDD60801

Issued at 7:31 pm CST Thursday 5 March 2015 (issued every 30 minutes, with the page automatically refreshed every 10 minutes)

About weather observations | Map of weather stations | Latest weather observations for NT | Other Formats
Station Details ID: 014254 Name: POINT STUART Lat: -12.24 Lon: 131.88 Height: 1.0 m
Data from the previous 72 hours. | See also: Recent months for locations in Northern Territory
Date/Time
CST
Temp
°C
App
Temp
°C
Dew
Point
Rel
Hum
%
Delta-T
°C
Wind Press
QNH
hPa
Press
MSL
hPa
Rain
since 9 am
mm
Dir
 
Spd
km/h
Gust
km/h
Spd
kts
Gust
kts
05/07:30pm 28.9 33.5 24.7 78 2.9 NNW 9 15 5 8 1006.6 - 0.0
05/07:00pm 29.2 33.6 25.0 78 3.0 NNW 11 17 6 9 1006.0 - 0.0
05/06:30pm 30.4 34.5 24.5 70 4.1 NNW 11 15 6 8 1005.5 - 0.0
05/06:00pm 31.5 34.8 25.1 69 4.5 NNW 17 22 9 12 1005.0 1005.0 0.0
05/05:30pm 31.7 35.6 25.5 69 4.4 NW 15 20 8 11 1005.0 - 0.0
05/05:00pm 32.2 36.1 25.5 67 4.8 NNW 15 20 8 11 1005.0 - 0.0
05/04:30pm 32.1 35.8 25.7 69 4.6 NW 17 22 9 12 1005.1 - 0.0
05/04:00pm 32.4 36.8 25.0 65 5.2 NW 11 17 6 9 1005.1 - 0.0
05/03:30pm 32.7 37.3 26.0 68 4.8 NW 13 17 7 9 1005.3 - 0.0
05/03:00pm 32.1 36.5 25.7 69 4.6 NW 13 20 7 11 1005.6 1005.6 0.0
05/02:30pm 32.5 37.8 25.8 68 4.8 NNW 9 17 5 9 1006.1 - 0.0
05/02:00pm 31.9 35.8 24.2 63 5.4 NNW 11 17 6 9 1006.5 - 0.0
05/01:30pm 32.3 37.7 26.6 72 4.1 NNW 11 17 6 9 1007.0 - 0.0
05/01:00pm 32.4 37.2 26.2 70 4.4 NNW 13 17 7 9 1007.7 - 0.0
05/12:30pm 32.0 36.5 25.8 69 4.4 NW 13 20 7 11 1008.1 - 0.0
05/12:00pm 31.1 35.2 25.2 71 4.2 NW 13 19 7 10 1008.4 1008.4 0.0
05/11:30am 30.6 36.2 25.7 75 3.5 NNW 7 11 4 6 1008.5 - 0.0
05/11:00am 30.8 35.7 25.2 72 3.9 WNW 9 13 5 7 1008.4 - 0.0
05/10:30am 30.8 35.8 25.4 73 3.8 WNW 9 13 5 7 1008.5 - 0.0
05/10:00am 30.2 35.6 26.6 81 2.6 SW 11 17 6 9 1008.4 - 0.0
05/09:30am 29.6 35.4 27.2 87 1.7 SW 11 15 6 8 1008.7 - 0.0
05/09:00am 28.9 34.5 26.9 89 1.4 WSW 11 17 6 9 1008.7 1008.7 0.0
05/08:30am 28.1 34.7 27.8 98 0.2 SW 9 15 5 8 1008.6 - 0.0
05/08:00am 27.2 33.0 27.2 100 0.0 S 11 13 6 7 1008.5 - 0.0
05/07:30am 26.7 31.8 26.7 100 0.0 S 13 17 7 9 1008.4 - 0.0
05/07:00am 26.6 32.8 26.6 100 0.0 SSE 7 11 4 6 1008.3 - 0.0
05/06:30am 26.8 32.3 26.8 100 0.0 SSW 11 15 6 8 1008.2 - 0.0
05/06:00am 26.6 32.8 26.6 100 0.0 SW 7 9 4 5 1008.0 1008.0 0.0
05/05:30am 26.7 32.6 26.7 100 0.0 W 9 11 5 6 1007.7 - 0.0
05/05:00am 27.0 33.1 27.0 100 0.0 SSW 9 11 5 6 1007.8 - 0.0
05/04:30am 27.1 33.2 27.1 100 0.0 SW 9 13 5 7 1007.5 - 0.0
05/04:00am 27.0 33.4 27.0 100 0.0 WSW 7 9 4 5 1007.2 - 0.0
05/03:30am 27.2 35.1 27.2 100 0.0 CALM 0 0 0 0 1007.0 - 0.0
05/03:00am 27.3 34.1 27.3 100 0.0 S 6 7 3 4 1007.3 1007.3 0.0
05/02:30am 27.1 33.8 27.1 100 0.0 WSW 6 6 3 3 1007.4 - 0.0
05/02:00am 27.2 34.0 27.2 100 0.0 SW 6 7 3 4 1007.8 - 0.0
05/01:30am 27.3 34.5 27.3 100 0.0 SW 4 6 2 3 1007.9 - 0.0
05/01:00am 27.3 33.9 27.3 100 0.0 SW 7 9 4 5 1008.4 - 0.0
05/12:30am 27.4 34.3 27.4 100 0.0 WSW 6 7 3 4 1008.7 - 0.0
05/12:00am 27.6 35.8 27.6 100 0.0 CALM 0 0 0 0 1009.0 1009.0 0.0
 
Date/Time
CST
Temp
°C
App
Temp
°C
Dew
Point
Rel
Hum
%
Delta-T
°C
Wind Press
QNH
hPa
Press
MSL
hPa
Rain
since 9 am
mm
Dir
 
Spd
km/h
Gust
km/h
Spd
kts
Gust
kts
04/11:30pm 27.6 35.4 27.1 97 0.4 CALM 0 0 0 0 1009.4 - 0.0
04/11:00pm 27.7 34.6 27.4 98 0.2 NW 6 9 3 5 1009.3 - 0.0
04/10:30pm 27.9 34.5 27.2 96 0.5 NW 7 11 4 6 1009.1 - 0.0
04/10:00pm 28.2 34.1 27.3 95 0.6 NW 11 15 6 8 1008.9 - 0.0
04/09:30pm 28.1 33.4 27.0 94 0.8 NW 13 17 7 9 1008.5 - 0.0
04/09:00pm 28.4 34.2 27.2 93 0.9 NW 11 15 6 8 1008.4 1008.4 0.0
04/08:30pm 28.4 34.1 27.0 92 1.0 NNW 11 19 6 10 1008.1 - 0.0
04/08:00pm 28.6 33.6 26.6 89 1.4 NNW 13 17 7 9 1007.8 - 0.0
04/07:30pm 28.8 34.1 25.8 84 2.1 NNW 9 17 5 9 1007.4 - 0.0
04/07:00pm 29.2 33.9 25.6 81 2.5 NNW 11 20 6 11 1006.8 - 0.0
04/06:30pm 30.0 34.3 25.5 77 3.2 NNW 13 20 7 11 1006.6 - 0.0
04/06:00pm 30.4 34.8 25.7 76 3.3 N 13 19 7 10 1006.3 1006.3 0.0
04/05:30pm 30.7 35.1 25.1 72 3.9 N 11 20 6 11 1006.1 - 0.0
04/05:00pm 31.0 35.4 25.1 71 4.2 N 11 17 6 9 1005.9 - 0.0
04/04:30pm 31.2 36.6 26.0 74 3.7 N 9 15 5 8 1005.9 - 0.0
04/04:00pm 31.5 37.0 26.1 73 3.9 N 9 13 5 7 1005.6 - 0.0
04/03:30pm 31.1 35.5 25.0 70 4.3 NE 11 17 6 9 1005.5 - 0.0
04/03:00pm 31.8 37.7 25.9 71 4.2 NNW 6 11 3 6 1005.7 1005.7 0.0
04/02:30pm 31.2 36.4 25.1 70 4.3 NNE 7 13 4 7 1006.3 - 0.0
04/02:00pm 31.1 36.0 25.9 74 3.7 NNW 11 19 6 10 1006.6 - 0.0
04/01:30pm 31.3 37.1 26.6 76 3.4 NW 9 15 5 8 1007.2 - 0.0
04/01:00pm 31.1 36.7 25.4 71 4.0 NNW 6 11 3 6 1007.4 - 0.0
04/12:30pm 30.9 36.6 26.4 77 3.2 NNW 9 17 5 9 1008.0 - 0.0
04/12:00pm 30.6 35.9 26.5 79 2.9 NNW 11 17 6 9 1008.5 1008.5 0.0
04/11:30am 29.9 35.9 26.1 80 2.7 NNW 6 13 3 7 1008.6 - 0.0
04/11:00am 30.3 37.1 27.3 84 2.2 WSW 6 9 3 5 1008.8 - 0.0
04/10:30am 28.8 34.1 25.2 81 2.5 WNW 7 11 4 6 1009.1 - 0.0
04/10:00am 29.8 36.2 25.5 78 3.0 NE 2 6 1 3 1008.9 - 0.0
04/09:30am 29.0 36.5 26.6 87 1.7 CALM 0 0 0 0 1008.7 - 0.0
04/09:00am 28.3 35.4 27.2 94 0.8 SSE 4 7 2 4 1008.5 1008.5 9.4
04/08:30am 27.5 34.3 27.5 100 0.0 SSE 7 9 4 5 1008.3 - 9.4
04/08:00am 26.5 32.6 26.5 100 0.0 SSE 7 11 4 6 1007.9 - 9.4
04/07:30am 26.1 32.1 26.1 100 0.0 S 6 11 3 6 1007.4 - 9.4
04/07:00am 25.7 31.5 25.7 100 0.0 SW 6 6 3 3 1007.2 - 9.4
04/06:30am 25.6 32.4 25.6 100 0.0 CALM 0 6 0 3 1006.9 - 9.4
04/06:00am 25.9 30.5 25.9 100 0.0 NNW 13 17 7 9 1006.6 1006.6 9.4
04/05:30am 26.3 32.3 26.3 100 0.0 E 7 11 4 6 1006.5 - 8.4
04/05:00am 26.6 34.1 26.6 100 0.0 CALM 0 0 0 0 1006.0 - 7.2
04/04:30am 26.9 33.5 26.9 100 0.0 NW 6 11 3 6 1005.8 - 7.2
04/04:00am 26.8 33.3 26.8 100 0.0 NNW 6 9 3 5 1005.7 - 7.2
04/03:30am 26.7 33.1 26.7 100 0.0 N 6 7 3 4 1006.0 - 7.2
04/03:00am 26.5 32.8 26.5 100 0.0 N 6 9 3 5 1006.1 1006.1 7.2
04/02:30am 26.5 32.6 26.5 100 0.0 NNE 7 9 4 5 1006.2 - 7.2
04/02:00am 26.3 32.5 26.3 100 0.0 NNE 6 9 3 5 1006.3 - 7.2
04/01:30am 26.6 32.8 26.6 100 0.0 NNE 7 11 4 6 1006.5 - 7.2
04/01:00am 26.6 32.8 26.6 100 0.0 N 7 11 4 6 1006.7 - 7.2
04/12:30am 26.7 32.6 26.7 100 0.0 N 9 13 5 7 1007.0 - 7.2
04/12:00am 26.1 32.1 26.1 100 0.0 ESE 6 9 3 5 1007.2 1007.2 6.8
 
Date/Time
CST
Temp
°C
App
Temp
°C
Dew
Point
Rel
Hum
%
Delta-T
°C
Wind Press
QNH
hPa
Press
MSL
hPa
Rain
since 9 am
mm
Dir
 
Spd
km/h
Gust
km/h
Spd
kts
Gust
kts
03/11:30pm 26.1 31.9 26.1 100 0.0 SSE 7 9 4 5 1007.5 - 6.8
03/11:00pm 26.4 33.0 26.4 100 0.0 SE 4 6 2 3 1007.4 - 6.8
03/10:30pm 26.4 32.4 26.4 100 0.0 ESE 7 9 4 5 1007.4 - 6.8
03/10:00pm 26.3 33.6 26.3 100 0.0 CALM 0 0 0 0 1007.0 - 6.8
03/09:30pm 26.5 32.2 26.5 100 0.0 ESE 9 11 5 6 1006.7 - 6.8
03/09:00pm 26.5 32.2 26.5 100 0.0 ESE 9 13 5 7 1006.6 1006.6 6.8
03/08:30pm 26.8 32.7 26.8 100 0.0 ENE 9 17 5 9 1006.7 - 6.8
03/08:00pm 26.2 32.3 26.2 100 0.0 NNE 6 9 3 5 1006.9 - 6.6
03/07:30pm 26.2 32.1 26.2 100 0.0 SE 7 9 4 5 1006.3 - 6.6
03/07:00pm 26.3 31.9 26.3 100 0.0 ESE 9 13 5 7 1005.8 - 6.6
03/06:30pm 25.9 29.7 25.9 100 0.0 NE 17 24 9 13 1005.5 - 6.4
03/06:00pm 27.2 33.4 26.7 97 0.4 ENE 7 11 4 6 1004.8 1004.8 4.4
03/05:30pm 27.0 33.3 26.5 97 0.4 N 6 9 3 5 1004.6 - 3.6
03/05:00pm 27.8 33.3 26.2 91 1.1 NNE 9 17 5 9 1004.7 - 1.8
03/04:30pm 30.1 34.6 25.8 78 3.1 NNE 13 20 7 11 1004.1 - 1.0
03/04:00pm 30.1 34.8 26.7 82 2.4 NE 15 24 8 13 1004.3 - 1.0
03/03:30pm 30.0 34.4 25.7 78 3.0 NNE 13 20 7 11 1004.3 - 1.0
03/03:00pm 29.7 33.0 25.7 79 2.8 NE 19 26 10 14 1004.9 1004.9 1.0
03/02:30pm 30.3 34.7 26.2 79 2.9 NNE 15 24 8 13 1005.2 - 1.0
03/02:00pm 30.1 34.0 26.0 78 2.9 NNE 17 24 9 13 1005.6 - 1.0
03/01:30pm 29.8 33.2 26.2 81 2.6 NE 20 28 11 15 1005.6 - 1.0
03/01:00pm 29.8 32.4 25.5 78 3.0 NE 22 32 12 17 1006.1 - 1.0
03/12:30pm 29.7 32.7 26.7 84 2.1 NE 24 30 13 16 1006.6 - 1.0
03/12:00pm 29.0 31.5 26.0 84 2.1 NE 24 33 13 18 1006.8 1006.8 1.0
03/11:30am 28.8 32.6 26.4 87 1.7 ENE 19 28 10 15 1006.9 - 1.0
03/11:00am 27.3 33.6 27.3 100 0.0 NNE 9 15 5 8 1007.2 - 1.0
03/10:30am 26.7 32.6 26.7 100 0.0 NNE 9 13 5 7 1007.3 - 0.4
03/10:00am 26.4 31.1 26.1 98 0.2 E 13 19 7 10 1007.1 - 0.0
03/09:30am 27.2 31.6 26.3 95 0.6 E 15 20 8 11 1006.8 - 0.0
03/09:00am 27.3 31.3 26.8 97 0.4 E 19 24 10 13 1006.4 1006.4 13.4
03/08:30am 26.2 30.2 26.2 100 0.0 ESE 17 22 9 12 1006.1 - 13.4
03/08:00am 25.7 29.8 25.7 100 0.0 ESE 15 19 8 10 1005.6 - 13.4
03/07:30am 25.2 29.3 25.2 100 0.0 ESE 13 17 7 9 1005.1 - 13.4
03/07:00am 24.7 29.3 24.7 100 0.0 SE 9 11 5 6 1004.8 - 13.4
03/06:30am 24.3 29.0 24.3 100 0.0 SE 7 9 4 5 1004.3 - 13.4
03/06:00am 24.3 30.3 24.3 100 0.0 CALM 0 6 0 3 1004.3 1004.3 13.4
03/05:30am 24.4 29.3 24.4 100 0.0 ESE 6 7 3 4 1004.0 - 13.4
03/05:00am 24.5 29.5 24.5 100 0.0 SE 6 9 3 5 1003.7 - 13.4
03/04:30am 24.5 30.6 24.5 100 0.0 CALM 0 6 0 3 1003.6 - 13.4
03/04:00am 24.7 30.6 24.7 100 0.0 S 2 6 1 3 1003.7 - 13.4
03/03:30am 24.7 29.6 24.7 100 0.0 SSE 7 9 4 5 1003.9 - 13.4
03/03:00am 24.7 29.3 24.7 100 0.0 SSE 9 13 5 7 1003.9 1003.9 13.4
03/02:30am 24.8 30.8 24.8 100 0.0 SE 2 6 1 3 1004.2 - 13.4
03/02:00am 25.0 31.5 25.0 100 0.0 CALM 0 6 0 3 1004.5 - 13.4
03/01:30am 25.0 30.1 25.0 100 0.0 SE 7 9 4 5 1004.5 - 13.4
03/01:00am 25.2 30.5 25.2 100 0.0 SSE 7 9 4 5 1004.7 - 13.4
03/12:30am 25.0 30.1 25.0 100 0.0 SW 7 11 4 6 1005.1 - 13.4
03/12:00am 25.2 30.6 25.2 100 0.0 WSW 6 7 3 4 1005.3 1005.3 13.4
 
Date/Time
CST
Temp
°C
App
Temp
°C
Dew
Point
Rel
Hum
%
Delta-T
°C
Wind Press
QNH
hPa
Press
MSL
hPa
Rain
since 9 am
mm
Dir
 
Spd
km/h
Gust
km/h
Spd
kts
Gust
kts
02/11:30pm 25.2 30.5 25.2 100 0.0 SSW 7 9 4 5 1005.5 - 13.4
02/11:00pm 25.2 30.5 25.2 100 0.0 SW 7 9 4 5 1005.6 - 13.4
02/10:30pm 25.0 29.4 25.0 100 0.0 SW 11 13 6 7 1005.5 - 13.4
02/10:00pm 25.0 30.1 25.0 100 0.0 WSW 7 11 4 6 1005.2 - 13.4
02/09:30pm 25.1 29.5 25.1 100 0.0 SSW 11 15 6 8 1004.8 - 13.4
02/09:00pm 25.5 30.2 25.5 100 0.0 SW 11 17 6 9 1004.8 1004.8 13.4
02/08:30pm 25.8 30.7 25.8 100 0.0 W 11 17 6 9 1004.5 - 13.4
02/08:00pm 25.8 30.7 25.8 100 0.0 WSW 11 15 6 8 1004.2 - 13.4

Other Formats:

Comma delimited format used in spreadsheet applications
http://www.bom.gov.au/fwo/IDD60801/IDD60801.94127.axf

JavaScript Object Notation format (JSON) in row-major order
http://www.bom.gov.au/fwo/IDD60801/IDD60801.94127.json